Tropical Cyclones
[Index]
Main Index Home Page Stock Weather Photos Extreme Storms Discussion Storm News and Storm Chasing Reports Tropical Cyclones / Hurricanes / Typhoons Weather Data and Links Wild Fires / Bushfires Weather Observation Techniques Weather Picture Catalogue Tornado Pictures and Reports Stock Video Footage and DVDs for sale
Season 1989-1990 Tropical Cyclone ALEX Track Map
Season 1989-1990 Summaries: [BoM-AU] [JTWC-AU] [JTWC-SIO] [JTWC-SPAC] [JTWC-SH]
<<- Previous TC | JTWC 1989-1990 Season | Next TC ->>

click for intensity scale information  Lat/long Grid: Show Hide

 Date Labels: Show Hide

Joint Typhoon Warning Centre Cyclone Data

Name: ALEX

14 Mar 1990 12:00 UTC to 24 Mar 1990 00:00 UTC

    date/time    lat    long     hPa   cat  kts
1990-03-14 12   11.8   115.2                  20          
1990-03-14 18   11.9   114.0                  20          
1990-03-15 00   12.3   113.3                  20          
1990-03-15 06   12.4   112.9                  25          
1990-03-15 12   12.4   112.6                  25          
1990-03-15 18   12.4   112.3                  30          
1990-03-16 00   12.6   112.0                  30          
1990-03-16 06   12.8   111.5                  35          
1990-03-16 12   12.9   110.9            1     40          
1990-03-16 18   12.8   110.4            1     45          
1990-03-17 00   12.8   110.0            2     55          
1990-03-17 06   12.9   109.6            2     65          
1990-03-17 12   13.1   109.1            3     75          
1990-03-17 18   13.3   108.6            3     80          
1990-03-18 00   13.6   108.1            3     80          
1990-03-18 06   14.1   107.5            3     90          
1990-03-18 12   14.6   106.7            4    100          
1990-03-18 18   15.0   105.8            4    105          
1990-03-19 00   15.3   104.9            4    110          
1990-03-19 06   15.6   104.8            4    115          
1990-03-19 12   16.0   102.0            4    120          
1990-03-19 18   16.5   101.7            5    125          
1990-03-20 00   17.0   100.3            5    130          
1990-03-20 06   17.6    99.0            5    130          
1990-03-20 12   18.1    97.7            5    125          
1990-03-20 18   18.9    96.3            5    125          
1990-03-21 00   19.7    95.2            4    120          
1990-03-21 06   20.6    94.2            4    115          
1990-03-21 12   21.3    93.2            4    110          
1990-03-21 18   21.9    92.3            4    105          
1990-03-22 00   22.6    91.7            3     95          
1990-03-22 06   23.3    91.2            3     85          
1990-03-22 12   24.1    91.0            2     70          
1990-03-22 18   24.9    90.9            2     60          
1990-03-23 00   25.7    91.0            1     50          
1990-03-23 06   26.6    91.8            1     45          
1990-03-23 12   27.2    92.9            1     40          
1990-03-23 18   27.4    94.0                  35          
1990-03-24 00   27.6    95.5                  30          
Winds are 1-min average.

Tropical cyclone tracks developed by Michael Bath using data from the Joint Typhoon Warning Centre Best Tracks and Google Maps.


[Australian Severe Weather index] [Copyright Notice] [Email Contacts] [Search This Site] [Privacy Policy]
Document: tropical_cyclone_alex.htm Updated: 18 September 2016